createdAt,value
2018-09-09T00:03:20.380Z,18.60
2018-09-09T00:07:24.360Z,18.57
2018-09-09T00:11:27.946Z,18.54
2018-09-09T00:15:32.854Z,18.52
2018-09-09T00:19:36.609Z,18.53
2018-09-09T00:23:40.134Z,18.52
2018-09-09T00:27:43.772Z,18.49
2018-09-09T00:31:47.456Z,18.46
2018-09-09T00:35:52.019Z,18.42
2018-09-09T00:39:55.794Z,18.40
2018-09-09T00:43:59.488Z,18.36
2018-09-09T00:48:03.176Z,18.33
2018-09-09T00:52:15.256Z,18.29
2018-09-09T00:56:18.818Z,18.25
2018-09-09T01:00:27.807Z,18.18
2018-09-09T01:04:31.472Z,18.16
2018-09-09T01:08:36.181Z,18.11
2018-09-09T01:12:39.811Z,18.09
2018-09-09T01:16:43.293Z,18.06
2018-09-09T01:20:46.945Z,18.07
2018-09-09T01:24:52.654Z,18.06
2018-09-09T01:28:56.346Z,18.05
2018-09-09T01:32:59.883Z,18.03
2018-09-09T01:37:03.745Z,18.00
2018-09-09T01:41:07.613Z,17.97
2018-09-09T01:45:11.179Z,17.96
2018-09-09T01:49:14.690Z,17.92
2018-09-09T01:53:18.235Z,17.89
2018-09-09T01:57:22.034Z,17.87
2018-09-09T02:01:25.675Z,17.83
2018-09-09T02:05:29.203Z,17.78
2018-09-09T02:09:32.946Z,17.72
2018-09-09T02:13:36.586Z,17.66
2018-09-09T02:17:40.338Z,17.62
2018-09-09T02:21:43.885Z,17.59
2018-09-09T02:25:47.456Z,17.56
2018-09-09T02:29:51.182Z,17.54
2018-09-09T02:33:54.797Z,17.51
2018-09-09T02:37:58.653Z,17.49
2018-09-09T02:42:02.298Z,17.48
2018-09-09T02:46:06.089Z,17.48
2018-09-09T02:50:09.650Z,17.49
2018-09-09T02:54:15.342Z,17.47
2018-09-09T02:58:19.016Z,17.43
2018-09-09T03:02:22.560Z,17.41
2018-09-09T03:06:26.225Z,17.39
2018-09-09T03:10:29.831Z,17.36
2018-09-09T03:14:33.950Z,17.34
2018-09-09T03:18:37.726Z,17.30
2018-09-09T03:22:41.421Z,17.30
2018-09-09T03:26:45.953Z,17.28
2018-09-09T03:30:49.975Z,17.27
2018-09-09T03:34:53.755Z,17.25
2018-09-09T03:38:57.693Z,17.20
2018-09-09T03:43:03.740Z,17.15
2018-09-09T03:47:07.283Z,17.11
2018-09-09T03:51:12.306Z,17.07
2018-09-09T03:55:15.952Z,17.05
2018-09-09T03:59:20.075Z,17.05
2018-09-09T04:03:23.712Z,17.05
2018-09-09T04:07:27.708Z,17.06
2018-09-09T04:11:31.474Z,17.05
2018-09-09T04:15:36.149Z,17.05
2018-09-09T04:19:39.666Z,17.01
2018-09-09T04:23:43.376Z,16.99
2018-09-09T04:27:46.915Z,16.96
2018-09-09T04:31:50.512Z,16.90
2018-09-09T04:35:54.579Z,16.83
2018-09-09T04:39:58.266Z,16.80
2018-09-09T04:44:03.107Z,16.80
2018-09-09T04:48:06.768Z,16.80
2018-09-09T04:52:10.736Z,16.78
2018-09-09T04:56:14.450Z,16.76
2018-09-09T05:00:18.137Z,16.75
2018-09-09T05:04:21.946Z,16.76
2018-09-09T05:08:25.606Z,16.79
2018-09-09T05:12:29.523Z,16.81
2018-09-09T05:16:33.094Z,16.82
2018-09-09T05:20:36.962Z,16.85
2018-09-09T05:24:40.524Z,16.89
2018-09-09T05:28:44.494Z,16.91
2018-09-09T05:32:48.154Z,16.90
2018-09-09T05:36:53.161Z,16.92
2018-09-09T05:40:56.943Z,16.93
2018-09-09T05:45:01.355Z,16.96
2018-09-09T05:49:05.441Z,17.01
2018-09-09T05:53:09.043Z,17.08
2018-09-09T05:57:12.806Z,17.15
2018-09-09T06:01:17.412Z,17.19
2018-09-09T06:05:20.956Z,17.28
2018-09-09T06:09:24.760Z,17.35
2018-09-09T06:13:28.248Z,17.44
2018-09-09T06:17:32.330Z,17.51
2018-09-09T06:21:36.135Z,17.62
2018-09-09T06:25:39.866Z,17.72
2018-09-09T06:29:43.619Z,17.84
2018-09-09T06:33:47.638Z,17.96
2018-09-09T06:37:51.445Z,18.06
2018-09-09T06:41:55.065Z,18.20
2018-09-09T06:45:58.684Z,18.30
2018-09-09T06:50:02.398Z,18.36
2018-09-09T06:54:06.463Z,18.44
2018-09-09T06:58:10.220Z,18.59
2018-09-09T07:02:13.890Z,18.71
2018-09-09T07:06:17.554Z,18.77
2018-09-09T07:10:21.334Z,18.90
2018-09-09T07:14:25.248Z,19.01
2018-09-09T07:18:28.773Z,19.15
2018-09-09T07:22:32.376Z,19.32
2018-09-09T07:26:36.076Z,19.44
2018-09-09T07:30:39.781Z,19.64
2018-09-09T07:34:43.451Z,19.81
2018-09-09T07:38:47.111Z,19.89
2018-09-09T07:42:50.641Z,19.94
2018-09-09T07:46:54.270Z,20.10
2018-09-09T07:50:57.974Z,20.21
2018-09-09T07:55:01.603Z,20.25
2018-09-09T07:59:05.203Z,20.31
2018-09-09T08:03:08.894Z,20.43
2018-09-09T08:07:12.765Z,20.59
2018-09-09T08:11:16.374Z,20.76
2018-09-09T08:15:21.495Z,20.88
2018-09-09T08:19:25.983Z,20.88
2018-09-09T08:23:30.079Z,21.01
2018-09-09T08:27:34.253Z,21.17
2018-09-09T08:31:37.910Z,21.34
2018-09-09T08:35:42.638Z,21.47
2018-09-09T08:39:46.181Z,21.47
2018-09-09T08:43:49.817Z,21.44
2018-09-09T08:47:53.359Z,21.51
2018-09-09T08:51:57.204Z,21.60
2018-09-09T08:56:01.107Z,21.72
2018-09-09T09:00:04.810Z,21.75
2018-09-09T09:04:08.397Z,21.80
2018-09-09T09:08:12.067Z,21.92
2018-09-09T09:12:16.259Z,22.00
2018-09-09T09:16:20.036Z,22.16
2018-09-09T09:20:23.624Z,22.28
2018-09-09T09:24:27.282Z,22.37
2018-09-09T09:28:30.834Z,22.42
2018-09-09T09:32:34.514Z,22.50
2018-09-09T09:36:38.280Z,22.53
2018-09-09T09:40:41.798Z,22.60
2018-09-09T09:44:45.777Z,22.73
2018-09-09T09:48:49.720Z,22.88
2018-09-09T09:52:53.330Z,23.05
2018-09-09T09:56:56.950Z,23.20
2018-09-09T10:01:01.940Z,23.35
2018-09-09T10:05:05.500Z,23.48
2018-09-09T10:09:09.135Z,23.58
2018-09-09T10:13:12.797Z,23.64
2018-09-09T10:17:16.386Z,23.72
2018-09-09T10:21:19.979Z,23.85
2018-09-09T10:25:23.863Z,23.95
2018-09-09T10:29:27.451Z,24.04
2018-09-09T10:33:31.094Z,24.15
2018-09-09T10:37:34.786Z,24.17
2018-09-09T10:41:38.833Z,24.14
2018-09-09T10:45:42.752Z,24.16
2018-09-09T10:49:46.323Z,24.17
2018-09-09T10:53:49.926Z,24.25
2018-09-09T10:57:53.750Z,24.42
2018-09-09T11:01:57.332Z,24.49
2018-09-09T11:06:01.646Z,24.51
2018-09-09T11:10:05.266Z,24.52
2018-09-09T11:14:08.834Z,24.49
2018-09-09T11:18:12.706Z,24.51
2018-09-09T11:22:16.409Z,24.56
2018-09-09T11:26:21.057Z,24.73
2018-09-09T11:30:24.753Z,24.88
2018-09-09T11:34:28.432Z,24.92
2018-09-09T11:38:32.070Z,25.02
2018-09-09T11:42:35.784Z,25.03
2018-09-09T11:46:39.359Z,25.08
2018-09-09T11:50:42.827Z,25.12
2018-09-09T11:54:46.549Z,25.11
2018-09-09T11:58:50.252Z,25.11
2018-09-09T12:02:53.880Z,25.12
2018-09-09T12:06:57.745Z,25.10
2018-09-09T12:11:01.694Z,25.11
2018-09-09T12:15:06.844Z,25.16
2018-09-09T12:19:10.328Z,25.13
2018-09-09T12:23:34.144Z,25.13
2018-09-09T12:27:37.937Z,25.13
2018-09-09T12:31:41.625Z,25.25
2018-09-09T12:35:45.391Z,25.30
2018-09-09T12:39:49.149Z,25.32
2018-09-09T12:43:58.174Z,25.36
2018-09-09T12:48:07.010Z,25.43
2018-09-09T12:52:10.855Z,25.41
2018-09-09T12:56:15.956Z,25.40
2018-09-09T13:00:19.695Z,25.39
2018-09-09T13:04:23.694Z,25.34
2018-09-09T13:08:27.305Z,25.34
2018-09-09T13:13:34.204Z,25.35
2018-09-09T13:17:37.859Z,25.37
2018-09-09T13:21:41.536Z,25.35
2018-09-09T13:25:45.261Z,25.31
2018-09-09T13:29:48.779Z,25.32
2018-09-09T13:33:52.502Z,25.38
2018-09-09T13:37:56.428Z,25.42
2018-09-09T13:42:00.363Z,25.39
2018-09-09T13:46:03.965Z,25.30
2018-09-09T13:50:07.532Z,25.25
2018-09-09T13:54:11.155Z,25.23
2018-09-09T13:58:14.999Z,25.21
2018-09-09T14:02:18.570Z,25.22
2018-09-09T14:06:22.314Z,25.23
2018-09-09T14:10:25.904Z,25.21
2018-09-09T14:14:29.709Z,25.17
2018-09-09T14:18:33.347Z,25.13
2018-09-09T14:22:38.239Z,25.15
2018-09-09T14:26:41.810Z,25.17
2018-09-09T14:30:45.636Z,25.18
2018-09-09T14:34:49.345Z,25.22
2018-09-09T14:38:53.077Z,25.28
2018-09-09T14:42:57.868Z,25.28
2018-09-09T14:47:01.906Z,25.25
2018-09-09T14:51:05.448Z,25.23
2018-09-09T14:55:09.210Z,25.22
2018-09-09T14:59:13.259Z,25.22
2018-09-09T15:03:16.973Z,25.16
2018-09-09T15:07:20.576Z,25.15
2018-09-09T15:11:24.232Z,25.13
2018-09-09T15:15:27.976Z,25.12
2018-09-09T15:19:31.564Z,25.09
2018-09-09T15:23:35.415Z,25.07
2018-09-09T15:27:39.118Z,25.05
2018-09-09T15:31:42.715Z,25.07
2018-09-09T15:35:46.332Z,25.11
2018-09-09T15:39:50.128Z,25.16
2018-09-09T15:43:53.899Z,25.14
2018-09-09T15:47:57.527Z,25.14
2018-09-09T15:52:01.460Z,25.12
2018-09-09T15:56:05.054Z,25.03
2018-09-09T16:00:08.954Z,24.97
2018-09-09T16:04:12.673Z,24.92
2018-09-09T16:08:16.406Z,24.88
2018-09-09T16:12:19.999Z,24.86
2018-09-09T16:16:24.959Z,24.83
2018-09-09T16:20:28.772Z,24.79
2018-09-09T16:24:32.429Z,24.75
2018-09-09T16:28:36.002Z,24.73
2018-09-09T16:32:39.779Z,24.69
2018-09-09T16:36:44.497Z,24.66
2018-09-09T16:40:48.637Z,24.64
2018-09-09T16:44:53.217Z,24.59
2018-09-09T16:48:56.946Z,24.57
2018-09-09T16:53:00.774Z,24.53
2018-09-09T16:57:04.637Z,24.55
2018-09-09T17:02:37.257Z,24.51
2018-09-09T17:06:40.842Z,24.42
2018-09-09T17:10:44.437Z,24.38
2018-09-09T17:14:47.987Z,24.37
2018-09-09T17:18:52.756Z,24.34
2018-09-09T17:27:48.337Z,24.26
2018-09-09T17:32:16.872Z,24.19
2018-09-09T17:36:40.925Z,24.10
2018-09-09T17:45:37.798Z,23.76
2018-09-09T18:41:01.759Z,23.05
2018-09-09T18:54:11.163Z,22.77
2018-09-09T18:59:00.872Z,22.67
2018-09-09T19:03:34.567Z,22.58
2018-09-09T19:07:49.334Z,22.46
2018-09-09T19:12:36.467Z,22.34
2018-09-09T19:21:58.795Z,22.14
2018-09-09T20:20:26.275Z,21.52
2018-09-09T20:24:29.808Z,21.48
2018-09-09T20:28:35.374Z,21.44
2018-09-09T20:32:39.956Z,21.41
2018-09-09T20:36:43.858Z,21.36
2018-09-09T20:40:47.558Z,21.34
2018-09-09T20:44:51.222Z,21.30
2018-09-09T20:48:55.331Z,21.25
2018-09-09T20:52:58.923Z,21.27
2018-09-09T20:57:02.883Z,21.25
2018-09-09T21:01:06.725Z,21.22
2018-09-09T21:05:10.373Z,21.19
2018-09-09T21:09:14.395Z,21.18
2018-09-09T21:13:18.108Z,21.14
2018-09-09T21:17:21.678Z,21.12
2018-09-09T21:21:25.445Z,21.09
2018-09-09T21:25:29.073Z,21.04
2018-09-09T21:29:32.740Z,20.98
2018-09-09T21:33:36.644Z,20.93
2018-09-09T21:37:40.233Z,20.91
2018-09-09T21:41:43.687Z,20.89
2018-09-09T21:45:47.239Z,20.86
2018-09-09T21:49:50.941Z,20.85
2018-09-09T21:53:54.674Z,20.83
2018-09-09T21:57:58.110Z,20.78
2018-09-09T22:02:07.494Z,20.80
2018-09-09T22:06:10.983Z,20.79
2018-09-09T22:10:14.744Z,20.77
2018-09-09T22:14:18.286Z,20.77
2018-09-09T22:18:21.885Z,20.76
2018-09-09T22:22:25.331Z,20.73
2018-09-09T22:26:28.904Z,20.72
2018-09-09T22:30:32.491Z,20.64
2018-09-09T22:34:36.136Z,20.57
2018-09-09T22:38:39.702Z,20.50
2018-09-09T22:42:43.643Z,20.43
2018-09-09T22:46:47.109Z,20.31
2018-09-09T22:50:50.829Z,20.24
2018-09-09T22:54:54.467Z,20.21
2018-09-09T22:58:58.270Z,20.19
2018-09-09T23:03:01.878Z,20.17
2018-09-09T23:07:05.489Z,20.15
2018-09-09T23:11:09.125Z,20.12
2018-09-09T23:15:12.929Z,20.05
2018-09-09T23:19:16.562Z,19.98
2018-09-09T23:23:20.239Z,19.93
2018-09-09T23:27:23.817Z,19.90
2018-09-09T23:31:27.389Z,19.87
2018-09-09T23:35:31.077Z,19.82
2018-09-09T23:39:34.672Z,19.77
2018-09-09T23:43:38.252Z,19.73
2018-09-09T23:47:41.891Z,19.69
2018-09-09T23:51:45.478Z,19.63
2018-09-09T23:55:49.015Z,19.55
2018-09-09T23:59:52.565Z,19.49
